Time;durP1;ratioP1;P1;durP2;ratioP2;P2;SDS_P1;SDS_P2;PMS_P1;PMS_P2;Temp;Humidity;BMP_temperature;BMP_pressure;BME280_temperature;BME280_humidity;BME280_pressure;Samples;Min_cycle;Max_cycle;Signal;HPM_P1;HPM_P2
2021/05/01 00:01:57;;;;;;;32.53;22.20;;;;;;;11.44;54.70;101371.72;4910666;28;123773;-70
2021/05/01 00:04:24;;;;;;;35.35;22.85;;;;;;;11.41;54.80;101383.28;4926316;28;119459;-71
2021/05/01 00:06:51;;;;;;;32.13;22.83;;;;;;;11.38;54.66;101378.13;4930792;28;118895;-71
2021/05/01 00:09:18;;;;;;;31.30;21.75;;;;;;;11.35;54.95;101378.25;4910890;28;123930;-71
2021/05/01 00:11:44;;;;;;;31.35;21.65;;;;;;;11.33;54.77;101374.78;4923508;28;124197;-71
2021/05/01 00:14:11;;;;;;;31.92;20.90;;;;;;;11.30;54.69;101374.91;4926060;28;119257;-71
2021/05/01 00:16:38;;;;;;;26.70;19.85;;;;;;;11.26;54.58;101368.00;4929679;28;119680;-71
2021/05/01 00:19:06;;;;;;;28.60;19.00;;;;;;;11.22;54.85;101371.69;4923322;28;124184;-72
2021/05/01 00:21:33;;;;;;;23.75;18.10;;;;;;;11.19;54.96;101361.22;4928215;28;123989;-72
2021/05/01 00:24:00;;;;;;;26.73;17.23;;;;;;;11.16;55.07;101366.66;4920465;28;120303;-72
2021/05/01 00:26:26;;;;;;;28.15;18.05;;;;;;;11.12;54.94;101370.34;4922163;28;119733;-71
2021/05/01 00:28:53;;;;;;;25.23;17.40;;;;;;;11.09;54.90;101366.91;4922993;28;124840;-71
2021/05/01 00:31:20;;;;;;;28.05;17.30;;;;;;;11.07;55.02;101368.72;4924950;28;124687;-70
2021/05/01 00:33:47;;;;;;;23.67;16.75;;;;;;;11.07;55.07;101362.56;4926333;28;118551;-70
2021/05/01 00:36:14;;;;;;;24.33;16.50;;;;;;;11.06;54.63;101360.84;4903871;28;119374;-70
2021/05/01 00:38:43;;;;;;;22.75;15.77;;;;;;;11.03;54.70;101360.97;4919918;28;124637;-70
2021/05/01 00:41:10;;;;;;;22.23;15.90;;;;;;;11.00;54.68;101358.41;4922031;28;123771;-70
2021/05/01 00:43:41;;;;;;;22.65;15.52;;;;;;;10.97;54.85;101362.06;4920136;28;120693;-70
2021/05/01 00:46:08;;;;;;;24.52;15.40;;;;;;;10.94;54.64;101348.91;4926026;28;120343;-70
2021/05/01 00:48:35;;;;;;;22.30;14.65;;;;;;;10.92;54.82;101348.09;4905248;28;124341;-70
2021/05/01 00:51:02;;;;;;;18.45;14.18;;;;;;;10.91;54.53;101359.66;4910865;28;122281;-70
2021/05/01 00:53:29;;;;;;;23.58;14.60;;;;;;;10.90;54.59;101363.22;4923335;28;119535;-71
2021/05/01 00:55:56;;;;;;;22.05;14.52;;;;;;;10.88;54.67;101357.09;4920328;28;119130;-70
2021/05/01 00:58:23;;;;;;;19.63;14.30;;;;;;;10.84;54.63;101360.78;4917998;28;124762;-71
2021/05/01 01:03:37;;;;;;;22.10;14.50;;;;;;;10.77;54.76;101360.16;4918847;28;117931;-70
2021/05/01 01:06:05;;;;;;;22.65;13.68;;;;;;;10.75;54.41;101355.84;4926292;28;119165;-70
2021/05/01 01:08:33;;;;;;;24.00;14.70;;;;;;;10.74;54.36;101364.69;4894163;28;123839;-70
2021/05/01 01:11:01;;;;;;;24.90;14.55;;;;;;;10.69;54.25;101357.78;4927496;28;124771;-70
2021/05/01 01:13:28;;;;;;;22.10;14.85;;;;;;;10.67;54.63;101356.97;4927221;28;119813;-70
2021/05/01 01:15:54;;;;;;;20.00;14.63;;;;;;;10.63;54.64;101358.03;4929991;28;119868;-70
2021/05/01 01:18:21;;;;;;;23.85;14.45;;;;;;;10.61;54.63;101359.88;4929411;28;124453;-70
2021/05/01 01:20:48;;;;;;;25.02;15.57;;;;;;;10.58;54.67;101359.97;4914881;28;123369;-70
2021/05/01 01:23:14;;;;;;;28.50;15.73;;;;;;;10.54;54.58;101353.06;4914992;28;121211;-71
2021/05/01 01:25:41;;;;;;;21.85;14.70;;;;;;;10.52;54.42;101344.31;4934092;28;118992;-70
2021/05/01 01:28:08;;;;;;;21.30;15.10;;;;;;;10.49;54.49;101355.00;4928782;28;123996;-70
2021/05/01 01:30:35;;;;;;;21.35;15.60;;;;;;;10.46;54.56;101347.19;4926535;28;124411;-70
2021/05/01 01:33:08;;;;;;;21.70;15.57;;;;;;;10.42;54.66;101358.81;4926578;28;119537;-72
2021/05/01 01:35:36;;;;;;;21.63;15.35;;;;;;;10.37;54.79;101356.31;4923166;28;120586;-70
2021/05/01 01:38:03;;;;;;;21.98;14.85;;;;;;;10.34;54.69;101356.47;4906915;28;123436;-70
2021/05/01 01:40:30;;;;;;;22.75;15.02;;;;;;;10.31;54.83;101352.13;4911501;28;123913;-70
2021/05/01 01:42:57;;;;;;;25.70;15.65;;;;;;;10.28;54.65;101356.63;4929132;28;119393;-70
2021/05/01 01:45:29;;;;;;;21.80;15.45;;;;;;;10.24;54.63;101347.06;4933083;28;119666;-69
2021/05/01 01:47:57;;;;;;;24.10;15.63;;;;;;;10.21;54.78;101350.69;4908278;28;123181;-72
2021/05/01 01:50:24;;;;;;;27.23;15.43;;;;;;;10.17;55.02;101349.06;4903980;28;122889;-70
2021/05/01 01:52:51;;;;;;;23.17;15.18;;;;;;;10.15;54.54;101350.88;4924766;28;119411;-71
2021/05/01 01:55:20;;;;;;;22.40;15.57;;;;;;;10.11;54.71;101351.91;4925759;28;119207;-70
2021/05/01 01:57:48;;;;;;;26.92;16.17;;;;;;;10.09;55.06;101351.09;4930870;28;124532;-70
2021/05/01 02:00:24;;;;;;;24.40;15.73;;;;;;;10.05;54.79;101349.50;4906040;28;123581;-70
2021/05/01 02:02:51;;;;;;;24.95;16.10;;;;;;;10.02;54.97;101349.59;4920620;28;119416;-72
2021/05/01 02:05:19;;;;;;;24.23;15.02;;;;;;;9.99;54.99;101344.41;4926855;28;119239;-71
2021/05/01 02:07:45;;;;;;;25.50;15.55;;;;;;;9.95;54.82;101343.66;4925199;28;124087;-71
2021/05/01 02:10:13;;;;;;;25.15;15.63;;;;;;;9.91;54.86;101337.59;4926372;28;124555;-71
2021/05/01 02:12:41;;;;;;;22.10;15.00;;;;;;;9.88;54.87;101337.69;4926754;28;119380;-73
2021/05/01 02:15:16;;;;;;;24.15;15.82;;;;;;;9.84;54.64;101341.38;4929013;28;119343;-71
2021/05/01 02:17:51;;;;;;;24.10;15.95;;;;;;;9.80;54.61;101345.03;4912346;28;122197;-71
2021/05/01 02:20:21;;;;;;;;;;;;;;;9.77;54.72;101339.00;4927632;28;124602;-70
2021/05/01 02:22:49;;;;;;;21.08;15.13;;;;;;;9.75;54.56;101341.69;4927947;28;120259;-71
2021/05/01 02:25:16;;;;;;;21.08;15.63;;;;;;;9.70;54.66;101344.50;4906595;28;119147;-70
2021/05/01 02:27:43;;;;;;;25.30;16.05;;;;;;;9.66;54.60;101341.97;4912207;28;124195;-70
2021/05/01 02:30:14;;;;;;;23.20;16.27;;;;;;;9.62;54.67;101343.00;4929740;28;123907;-70
2021/05/01 02:32:40;;;;;;;23.45;16.77;;;;;;;9.55;54.68;101345.88;4922451;28;119079;-70
2021/05/01 02:35:10;;;;;;;22.52;15.50;;;;;;;9.50;55.11;101342.50;4905874;28;118878;-69
2021/05/01 02:37:37;;;;;;;27.60;16.98;;;;;;;9.46;55.15;101334.72;4905659;28;123722;-75
2021/05/01 02:40:08;;;;;;;24.05;16.65;;;;;;;9.42;54.96;101338.34;4929030;28;124125;-70
2021/05/01 02:42:34;;;;;;;24.75;17.30;;;;;;;9.36;55.22;101344.69;4926189;28;119540;-70
2021/05/01 02:45:02;;;;;;;26.73;17.60;;;;;;;9.32;55.42;101343.06;4910442;28;118261;-70
2021/05/01 02:47:29;;;;;;;23.55;17.08;;;;;;;9.30;55.18;101350.19;4924355;28;123823;-70
2021/05/01 02:49:55;;;;;;;28.20;17.77;;;;;;;9.26;55.04;101343.28;4929467;28;124269;-70
2021/05/01 02:52:22;;;;;;;27.30;18.58;;;;;;;9.22;55.48;101341.66;4925403;28;119764;-70
2021/05/01 02:54:49;;;;;;;26.48;18.08;;;;;;;9.19;55.31;101333.81;4926365;28;119187;-69
2021/05/01 02:57:15;;;;;;;29.85;18.23;;;;;;;9.15;55.43;101336.56;4926124;28;125045;-69
2021/05/01 02:59:42;;;;;;;29.90;18.40;;;;;;;9.12;55.61;101331.38;4924032;28;123951;-69
2021/05/01 03:02:10;;;;;;;27.98;18.10;;;;;;;9.07;55.56;101328.00;4924162;28;119054;-69
2021/05/01 03:04:37;;;;;;;30.70;18.90;;;;;;;9.05;55.27;101332.47;4925990;28;119003;-70
2021/05/01 03:07:04;;;;;;;29.73;19.02;;;;;;;9.02;55.30;101329.03;4925938;28;124056;-69
2021/05/01 03:09:32;;;;;;;32.35;19.38;;;;;;;9.00;55.38;101330.88;4926772;28;123813;-70
2021/05/01 03:11:58;;;;;;;29.48;18.95;;;;;;;8.97;55.50;101326.56;4919432;28;120813;-69
2021/05/01 03:14:27;;;;;;;27.83;19.50;;;;;;;8.94;55.33;101326.66;4915600;28;119149;-69
2021/05/01 03:16:54;;;;;;;29.27;19.63;;;;;;;8.92;55.30;101323.19;4924477;28;124058;-69
2021/05/01 03:19:21;;;;;;;29.35;19.42;;;;;;;8.89;55.69;101328.56;4927673;28;124061;-70
2021/05/01 03:21:48;;;;;;;36.30;20.55;;;;;;;8.86;55.17;101328.66;4919634;28;119928;-69
2021/05/01 03:24:14;;;;;;;31.20;21.45;;;;;;;8.82;55.48;101332.31;4928681;28;118837;-70
2021/05/01 03:26:41;;;;;;;31.60;21.65;;;;;;;8.80;55.44;101328.81;4924297;28;124092;-70
2021/05/01 03:29:08;;;;;;;29.60;20.42;;;;;;;8.75;55.49;101319.28;4921850;28;124019;-69
2021/05/01 03:31:34;;;;;;;34.30;22.00;;;;;;;8.73;55.45;101318.44;4926330;28;120365;-69
2021/05/01 03:34:01;;;;;;;32.85;21.42;;;;;;;8.71;55.65;101315.00;4919053;28;119614;-70
2021/05/01 03:36:28;;;;;;;29.40;20.23;;;;;;;8.67;55.57;101318.63;4908429;28;123547;-70
2021/05/01 03:38:54;;;;;;;31.23;21.08;;;;;;;8.64;55.69;101318.72;4927504;28;123933;-70
2021/05/01 03:41:21;;;;;;;32.40;21.42;;;;;;;8.61;55.53;101313.56;4923691;28;119325;-70
2021/05/01 03:43:47;;;;;;;32.28;21.48;;;;;;;8.57;55.68;101317.19;4910594;28;118075;-70
2021/05/01 03:46:14;;;;;;;35.47;21.60;;;;;;;8.55;55.33;101308.44;4911434;28;124159;-70
2021/05/01 03:48:41;;;;;;;35.60;22.42;;;;;;;8.53;55.66;101312.88;4911641;28;123334;-70
2021/05/01 03:51:07;;;;;;;33.42;21.85;;;;;;;8.47;55.41;101315.72;4921743;28;119365;-70
2021/05/01 03:53:34;;;;;;;41.75;22.77;;;;;;;8.46;55.58;101308.72;4925485;28;118968;-70
2021/05/01 03:56:01;;;;;;;36.58;22.80;;;;;;;8.43;55.86;101314.06;4920956;28;123931;-70
2021/05/01 03:58:28;;;;;;;32.67;21.77;;;;;;;8.40;55.74;101309.72;4903353;23;715621;-63
2021/05/01 04:00:55;;;;;;;36.20;23.10;;;;;;;8.37;55.88;101315.94;4907455;28;120240;-62
2021/05/01 04:03:22;;;;;;;34.58;23.17;;;;;;;8.36;55.84;101314.22;4902315;28;119947;-63
2021/05/01 04:05:48;;;;;;;38.45;23.65;;;;;;;8.33;55.76;101324.84;4889035;28;123274;-63
2021/05/01 04:08:15;;;;;;;37.17;23.48;;;;;;;8.32;55.96;101315.19;4907870;28;123952;-63
2021/05/01 04:10:41;;;;;;;39.08;23.42;;;;;;;8.30;55.84;101316.16;4889359;28;118753;-63
2021/05/01 04:13:08;;;;;;;42.75;24.48;;;;;;;8.26;56.02;101312.72;4900134;28;118962;-62
2021/05/01 04:15:36;;;;;;;40.75;24.27;;;;;;;8.25;56.00;101318.94;4903636;28;124814;-63
2021/05/01 04:18:02;;;;;;;36.95;25.45;;;;;;;8.22;56.25;101316.38;4906635;28;124704;-63
2021/05/01 04:20:29;;;;;;;39.08;25.02;;;;;;;8.21;56.16;101319.91;4906614;28;119125;-63
2021/05/01 04:22:56;;;;;;;41.00;25.20;;;;;;;8.18;56.15;101320.88;4890849;28;118001;-63
2021/05/01 04:25:23;;;;;;;38.78;24.40;;;;;;;8.16;56.21;101317.41;4905271;28;124796;-63
2021/05/01 04:27:50;;;;;;;42.13;25.45;;;;;;;8.13;56.04;101311.34;4905130;28;124312;-63
2021/05/01 04:30:17;;;;;;;43.17;24.83;;;;;;;8.10;56.29;101317.59;4902048;28;119801;-63
2021/05/01 04:32:44;;;;;;;39.33;25.30;;;;;;;8.08;56.22;101318.50;4906544;28;120071;-62
2021/05/01 04:35:11;;;;;;;41.05;26.02;;;;;;;8.08;56.39;101318.50;4897437;28;124305;-63
2021/05/01 04:37:37;;;;;;;41.35;25.60;;;;;;;8.06;56.58;101315.06;4909955;28;124821;-62
2021/05/01 04:40:05;;;;;;;38.90;25.40;;;;;;;8.06;56.63;101320.31;4904284;28;118326;-62
2021/05/01 04:42:31;;;;;;;40.10;25.98;;;;;;;8.06;56.87;101322.97;4906130;28;119341;-62
2021/05/01 04:44:58;;;;;;;41.30;26.50;;;;;;;8.06;56.69;101325.59;4902664;28;123935;-62
2021/05/01 04:47:25;;;;;;;47.63;27.48;;;;;;;8.06;57.04;101325.59;4892206;28;122931;-63
2021/05/01 04:49:52;;;;;;;46.42;28.23;;;;;;;8.08;56.87;101329.06;4876991;28;119102;-63
2021/05/01 04:52:19;;;;;;;45.17;28.17;;;;;;;8.06;56.88;101326.50;4910933;28;119940;-64
2021/05/01 04:54:45;;;;;;;41.90;26.92;;;;;;;8.08;56.99;101331.69;4905673;28;124349;-62
2021/05/01 04:57:12;;;;;;;47.30;29.02;;;;;;;8.08;56.94;101331.69;4907796;28;123938;-62
2021/05/01 04:59:39;;;;;;;50.85;29.27;;;;;;;8.09;57.16;101330.81;4906244;28;119693;-64
2021/05/01 05:02:05;;;;;;;52.13;30.45;;;;;;;8.10;57.31;101332.53;4898940;28;119525;-61
2021/05/01 05:04:32;;;;;;;48.40;30.48;;;;;;;8.12;57.29;101341.28;4903887;28;124633;-62
2021/05/01 05:06:59;;;;;;;51.85;31.33;;;;;;;8.13;57.17;101341.22;4889135;28;125055;-62
2021/05/01 05:09:26;;;;;;;48.08;30.33;;;;;;;8.16;57.23;101342.94;4905134;28;120196;-62
2021/05/01 05:11:52;;;;;;;48.72;32.00;;;;;;;8.17;57.34;101349.94;4894539;28;118177;-63
2021/05/01 05:14:19;;;;;;;53.50;32.38;;;;;;;8.18;57.64;101347.25;4898476;28;124431;-63
2021/05/01 05:16:46;;;;;;;50.65;31.58;;;;;;;8.21;57.75;101346.28;4908163;28;124087;-63
2021/05/01 05:19:13;;;;;;;53.30;32.15;;;;;;;8.23;57.85;101349.78;4903319;28;120164;-64
2021/05/01 05:21:39;;;;;;;53.85;33.72;;;;;;;8.25;57.80;101347.97;4907807;28;119291;-62
2021/05/01 05:24:06;;;;;;;52.55;34.15;;;;;;;8.28;57.47;101353.13;4894165;28;123166;-63
2021/05/01 05:26:33;;;;;;;54.63;34.42;;;;;;;8.29;57.81;101354.88;4905983;28;124545;-63
2021/05/01 05:28:59;;;;;;;54.55;34.70;;;;;;;8.31;57.65;101358.34;4903527;28;118742;-62
2021/05/01 05:31:26;;;;;;;61.05;35.88;;;;;;;8.34;57.88;101363.56;4901604;28;119262;-64
2021/05/01 05:33:53;;;;;;;57.58;36.35;;;;;;;8.37;57.89;101367.88;4888036;28;123073;-63
2021/05/01 05:36:19;;;;;;;53.90;35.90;;;;;;;8.39;57.84;101377.47;4903198;28;124717;-64
2021/05/01 05:38:46;;;;;;;55.50;35.42;;;;;;;8.43;58.10;101370.34;4885122;28;119948;-63
2021/05/01 05:41:12;;;;;;;56.72;36.55;;;;;;;8.48;58.08;101375.53;4903653;28;120003;-63
2021/05/01 05:43:39;;;;;;;52.40;35.38;;;;;;;8.52;58.30;101377.16;4909074;28;124175;-63
2021/05/01 05:46:13;;;;;;;55.55;36.20;;;;;;;8.55;58.30;101377.06;4904757;28;123814;-64
2021/05/01 05:48:40;;;;;;;57.35;34.88;;;;;;;8.58;58.16;101382.28;4905763;28;119620;-64
2021/05/01 05:51:07;;;;;;;54.33;34.60;;;;;;;8.62;58.59;101381.28;4902655;28;119044;-64
2021/05/01 05:53:34;;;;;;;54.10;34.10;;;;;;;8.66;58.49;101369.72;4903810;28;124702;-64
2021/05/01 05:56:01;;;;;;;54.28;34.88;;;;;;;8.70;58.68;101371.38;4905488;28;123749;-64
2021/05/01 05:58:28;;;;;;;53.03;33.50;;;;;;;8.75;58.80;101380.00;4907090;28;119423;-63
2021/05/01 06:00:54;;;;;;;56.08;34.50;;;;;;;8.81;58.42;101383.38;4910577;28;119128;-64
2021/05/01 06:03:23;;;;;;;55.95;35.42;;;;;;;8.87;58.69;101383.22;4908625;28;124270;-64
2021/05/01 06:05:55;;;;;;;55.75;33.97;;;;;;;8.94;58.83;101379.47;4907828;28;124745;-64
2021/05/01 06:08:22;;;;;;;49.78;33.45;;;;;;;9.00;58.70;101371.34;4902182;28;118344;-63
2021/05/01 06:10:50;;;;;;;55.58;34.28;;;;;;;9.06;58.96;101368.56;4910743;28;119826;-62
2021/05/01 06:13:19;;;;;;;50.47;33.05;;;;;;;9.14;58.69;101377.09;4894639;28;122246;-62
2021/05/01 06:15:47;;;;;;;45.05;32.53;;;;;;;9.24;59.08;101376.81;4900328;28;124387;-62
2021/05/01 06:18:17;;;;;;;47.97;31.60;;;;;;;9.31;58.91;101373.94;4908615;28;118406;-63
2021/05/01 06:20:44;;;;;;;43.47;31.10;;;;;;;9.40;59.06;101378.09;4890075;28;119356;-62
2021/05/01 06:23:11;;;;;;;46.38;30.70;;;;;;;9.50;58.72;101379.50;4909577;28;124162;-62
2021/05/01 06:25:38;;;;;;;49.20;31.67;;;;;;;9.61;59.09;101373.03;4908521;28;124275;-62
2021/05/01 06:28:05;;;;;;;43.40;28.52;;;;;;;9.71;58.93;101370.00;4905089;28;120829;-62
2021/05/01 06:30:31;;;;;;;40.08;29.33;;;;;;;9.83;58.96;101371.41;4907289;28;120556;-62
2021/05/01 06:33:02;;;;;;;37.67;26.77;;;;;;;9.97;58.91;101378.00;4895817;28;123068;-62
2021/05/01 06:35:29;;;;;;;38.47;26.95;;;;;;;10.09;58.96;101377.56;4903806;28;124226;-62
2021/05/01 06:37:56;;;;;;;37.70;26.65;;;;;;;10.23;58.99;101366.53;4906448;28;119995;-62
2021/05/01 06:40:30;;;;;;;36.45;26.15;;;;;;;10.38;58.89;101362.47;4906102;28;119178;-61
2021/05/01 06:43:01;;;;;;;35.08;25.88;;;;;;;10.55;58.99;101362.75;4888075;28;124015;-62
2021/05/01 06:45:29;;;;;;;36.90;25.65;;;;;;;10.74;58.58;101370.00;4894594;28;123458;-62
2021/05/01 06:48:05;;;;;;;32.25;23.55;;;;;;;10.90;58.73;101371.16;4907401;28;119273;-62
2021/05/01 06:50:33;;;;;;;32.78;23.63;;;;;;;11.10;58.54;101357.16;4897352;28;119215;-62
2021/05/01 06:53:01;;;;;;;31.15;22.35;;;;;;;11.30;58.05;101365.19;4905172;28;124866;-63
2021/05/01 06:55:31;;;;;;;34.17;22.15;;;;;;;11.49;58.00;101364.47;4905393;28;122990;-62
2021/05/01 06:58:00;;;;;;;29.60;21.73;;;;;;;11.65;57.90;101356.72;4908712;28;120367;-62
2021/05/01 07:00:29;;;;;;;27.50;21.10;;;;;;;11.84;57.68;101365.63;4902705;28;119636;-62
2021/05/01 07:03:08;;;;;;;27.63;19.65;;;;;;;12.02;57.25;101360.53;4901520;28;124100;-62
2021/05/01 07:05:36;;;;;;;26.52;19.08;;;;;;;12.21;57.17;101358.78;4903487;28;124482;-62
2021/05/01 07:08:04;;;;;;;22.10;15.57;;;;;;;12.35;56.42;101365.28;4907857;28;119917;-62
2021/05/01 07:10:31;;;;;;;21.92;14.40;;;;;;;12.46;55.94;101360.34;4907551;28;119952;-62
2021/05/01 07:13:00;;;;;;;23.67;15.35;;;;;;;12.56;55.73;101359.00;4908498;28;124461;-63
2021/05/01 07:15:26;;;;;;;18.50;13.38;;;;;;;12.65;55.78;101353.28;4906715;28;123869;-62
2021/05/01 07:17:53;;;;;;;19.52;13.27;;;;;;;12.78;55.49;101352.72;4909433;28;121069;-63
2021/05/01 07:20:21;;;;;;;18.35;14.13;;;;;;;12.87;55.23;101360.28;4905571;28;120343;-63
2021/05/01 07:22:52;;;;;;;21.50;14.30;;;;;;;13.00;55.47;101357.91;4898801;28;124891;-62
2021/05/01 07:25:24;;;;;;;14.43;8.27;;;;;;;13.17;54.75;101359.78;4905810;28;123925;-62
2021/05/01 07:27:56;;;;;;;15.35;9.52;;;;;;;13.29;54.24;101358.31;4904813;28;119750;-62
2021/05/01 07:30:25;;;;;;;18.42;10.38;;;;;;;13.37;53.85;101357.06;4897443;28;119072;-62
2021/05/01 07:32:55;;;;;;;14.40;9.88;;;;;;;13.46;53.59;101361.03;4898912;28;124139;-62
2021/05/01 07:35:24;;;;;;;18.00;11.75;;;;;;;13.50;52.99;101356.44;4897175;28;123184;-63
2021/05/01 07:37:53;;;;;;;16.20;11.85;;;;;;;13.57;52.97;101363.19;4898436;28;119179;-63
2021/05/01 07:40:22;;;;;;;19.23;12.60;;;;;;;13.63;52.90;101362.88;4891760;28;118237;-62
2021/05/01 07:42:50;;;;;;;17.80;11.63;;;;;;;13.72;52.78;101362.44;4895737;28;123867;-62
2021/05/01 07:45:21;;;;;;;17.30;12.15;;;;;;;13.82;52.93;101361.03;4903500;28;126231;-62
2021/05/01 07:47:51;;;;;;;17.08;12.13;;;;;;;13.93;52.81;101367.63;4899281;28;118948;-62
2021/05/01 07:50:22;;;;;;;17.35;12.48;;;;;;;14.01;52.40;101370.75;4900103;28;119450;-62
2021/05/01 07:52:51;;;;;;;20.13;12.30;;;;;;;14.09;51.80;101370.34;4896222;28;123579;-63
2021/05/01 07:55:18;;;;;;;15.32;9.27;;;;;;;14.12;51.22;101375.53;4899100;28;124021;-62
2021/05/01 07:57:47;;;;;;;14.55;8.70;;;;;;;14.09;50.81;101376.56;4875571;28;118249;-63
2021/05/01 08:00:16;;;;;;;14.43;9.43;;;;;;;14.10;50.60;101375.59;4887683;28;118077;-62
2021/05/01 08:02:43;;;;;;;13.50;9.20;;;;;;;14.17;50.85;101369.03;4887643;28;124029;-62
2021/05/01 08:05:15;;;;;;;12.48;8.55;;;;;;;14.30;50.68;101365.72;4907195;28;124837;-62
2021/05/01 08:07:42;;;;;;;13.32;7.95;;;;;;;14.44;50.49;101371.19;4902201;28;119135;-63
2021/05/01 08:10:09;;;;;;;12.95;7.30;;;;;;;14.51;49.91;101364.59;4910217;28;120760;-62
2021/05/01 08:12:36;;;;;;;10.88;6.95;;;;;;;14.59;48.78;101359.72;4906838;28;124266;-63
2021/05/01 08:15:06;;;;;;;12.25;6.35;;;;;;;14.68;48.55;101365.53;4894605;28;123009;-62
2021/05/01 08:17:33;;;;;;;9.02;6.85;;;;;;;14.76;48.23;101360.63;4878121;28;118690;-62
2021/05/01 08:20:00;;;;;;;12.48;6.95;;;;;;;14.87;48.14;101355.56;4896587;28;118580;-63
2021/05/01 08:22:27;;;;;;;10.50;6.90;;;;;;;14.96;48.56;101347.06;4901161;28;123666;-62
2021/05/01 08:24:54;;;;;;;11.55;6.90;;;;;;;15.08;48.00;101344.66;4903750;28;124252;-62
2021/05/01 08:27:20;;;;;;;8.60;5.20;;;;;;;15.15;47.34;101346.03;4905281;28;119644;-62
2021/05/01 08:29:47;;;;;;;8.00;5.57;;;;;;;15.17;46.86;101344.16;4902357;28;119242;-63
2021/05/01 08:32:14;;;;;;;8.13;5.22;;;;;;;15.12;46.42;101340.88;4894233;28;123914;-63
2021/05/01 08:34:43;;;;;;;8.05;6.05;;;;;;;15.04;46.16;101343.13;4896859;28;123623;-63
2021/05/01 08:37:11;;;;;;;11.05;5.60;;;;;;;14.95;46.33;101345.31;4892330;28;119106;-63
2021/05/01 08:39:39;;;;;;;12.15;5.85;;;;;;;14.97;47.16;101335.47;4896665;28;119687;-63
2021/05/01 08:42:06;;;;;;;11.75;6.22;;;;;;;15.05;47.23;101340.38;4895961;28;124821;-63
2021/05/01 08:44:33;;;;;;;7.32;5.47;;;;;;;15.13;46.63;101342.59;4891442;28;122679;-63
2021/05/01 08:47:00;;;;;;;8.00;5.93;;;;;;;15.11;45.66;101340.03;4894780;28;118378;-63
2021/05/01 08:49:27;;;;;;;10.18;5.80;;;;;;;15.05;45.57;101334.16;4890934;28;118173;-64
2021/05/01 08:51:53;;;;;;;10.50;5.95;;;;;;;15.02;45.81;101329.00;4890743;28;123514;-62
2021/05/01 08:54:20;;;;;;;10.27;5.88;;;;;;;15.06;46.09;101330.56;4901311;28;124261;-64
2021/05/01 08:56:47;;;;;;;10.25;5.43;;;;;;;15.13;46.21;101326.59;4889017;28;119207;-63
2021/05/01 08:59:15;;;;;;;7.43;5.43;;;;;;;15.20;45.84;101333.31;4882910;28;118916;-63
2021/05/01 09:01:42;;;;;;;6.68;5.15;;;;;;;15.28;45.39;101336.41;4912070;28;124731;-63
2021/05/01 09:04:10;;;;;;;8.43;5.45;;;;;;;15.33;45.22;101334.34;4891420;28;124211;-63
2021/05/01 09:06:37;;;;;;;10.82;5.38;;;;;;;15.34;45.07;101330.69;4911857;28;119450;-63
2021/05/01 09:09:10;;;;;;;12.65;5.90;;;;;;;15.33;44.29;101345.00;4897790;28;119456;-62
2021/05/01 09:11:43;;;;;;;10.60;6.00;;;;;;;15.37;44.79;101335.88;4908591;28;124061;-62
2021/05/01 09:14:22;;;;;;;9.68;6.05;;;;;;;15.46;45.30;101328.28;4912036;28;123851;-62
2021/05/01 09:17:03;;;;;;;10.57;6.32;;;;;;;15.60;45.10;101330.16;4911310;28;119508;-62
2021/05/01 09:19:41;;;;;;;10.57;5.88;;;;;;;15.67;44.11;101337.72;4899741;28;118198;-64
2021/05/01 09:22:13;;;;;;;9.30;6.30;;;;;;;15.70;43.89;101340.19;4910202;28;123918;-63
2021/05/01 09:24:44;;;;;;;8.27;5.60;;;;;;;15.69;43.77;101335.81;4908739;28;123985;-63
2021/05/01 09:27:16;;;;;;;8.85;5.82;;;;;;;15.70;43.35;101332.19;4892261;28;119194;-62
2021/05/01 09:29:43;;;;;;;9.38;5.72;;;;;;;15.74;43.00;101343.56;4909149;28;119656;-63
2021/05/01 09:32:26;;;;;;;7.90;5.30;;;;;;;15.75;42.91;101340.81;4892567;28;124268;-62
2021/05/01 09:34:56;;;;;;;8.50;5.65;;;;;;;15.76;42.74;101344.34;4916680;28;124543;-62
2021/05/01 09:37:26;;;;;;;7.30;4.55;;;;;;;15.70;41.94;101348.19;4912501;28;119520;-63
2021/05/01 09:39:56;;;;;;;8.55;4.82;;;;;;;15.68;42.41;101346.59;4903479;28;118565;-63
2021/05/01 09:42:23;;;;;;;7.60;5.30;;;;;;;15.70;42.14;101348.19;4910279;28;122975;-63
2021/05/01 09:45:16;;;;;;;8.55;4.90;;;;;;;15.79;42.31;101346.00;4902541;28;123419;-63
2021/05/01 09:47:50;;;;;;;7.78;4.80;;;;;;;15.91;42.31;101345.25;4899885;28;120850;-63
2021/05/01 09:50:25;;;;;;;9.20;4.82;;;;;;;16.04;42.24;101332.88;4901782;28;120321;-63
2021/05/01 09:53:03;;;;;;;10.02;5.38;;;;;;;16.09;41.79;101336.13;4898250;28;124199;-63
2021/05/01 09:55:54;;;;;;;10.02;5.63;;;;;;;16.08;41.79;101337.09;4906976;28;124315;-63
2021/05/01 09:58:24;;;;;;;7.10;5.20;;;;;;;16.11;41.33;101334.22;4890478;28;118375;-63
2021/05/01 10:00:53;;;;;;;7.88;5.47;;;;;;;16.10;40.68;101328.97;4901312;23;118306;-74
2021/05/01 10:03:29;;;;;;;7.72;5.65;;;;;;;16.07;40.76;101335.38;4906565;28;125158;-73
2021/05/01 10:05:59;;;;;;;6.95;5.05;;;;;;;16.12;41.22;101333.28;4901814;28;124405;-75
2021/05/01 10:08:30;;;;;;;7.65;4.85;;;;;;;16.23;40.64;101334.44;4900474;28;119105;-74
2021/05/01 10:11:07;;;;;;;7.65;4.90;;;;;;;16.37;40.82;101337.13;4884981;28;120033;-74
2021/05/01 10:13:51;;;;;;;7.53;4.70;;;;;;;16.54;40.06;101328.06;4873635;28;123482;-74
2021/05/01 10:16:20;;;;;;;6.22;4.90;;;;;;;16.70;40.22;101328.81;4873160;28;124992;-75
2021/05/01 10:19:04;;;;;;;6.38;4.68;;;;;;;16.84;39.92;101325.31;4867286;28;120196;-74
2021/05/01 10:21:31;;;;;;;6.75;4.57;;;;;;;16.99;39.30;101330.63;4876644;28;118217;-75
2021/05/01 10:23:58;;;;;;;8.23;4.50;;;;;;;17.02;38.78;101333.09;4881559;28;123125;-76
2021/05/01 10:26:25;;;;;;;5.45;4.35;;;;;;;17.02;38.29;101333.09;4863923;28;123800;-74
2021/05/01 10:28:57;;;;;;;5.60;4.38;;;;;;;16.98;38.11;101332.44;4885882;28;117557;-75
2021/05/01 10:31:24;;;;;;;11.27;4.57;;;;;;;16.90;37.88;101334.75;4870655;28;118378;-74
2021/05/01 10:33:52;;;;;;;8.57;4.80;;;;;;;16.83;37.49;101338.78;4856373;28;124053;-75
2021/05/01 10:36:27;;;;;;;6.30;4.82;;;;;;;16.72;37.40;101336.75;4869780;28;124120;-74
2021/05/01 10:39:12;;;;;;;8.13;4.78;;;;;;;16.64;37.95;101336.38;4866552;28;122759;-74
2021/05/01 10:41:52;;;;;;;10.13;4.88;;;;;;;16.64;37.58;101333.69;4848075;28;120390;-75
2021/05/01 10:44:19;;;;;;;6.45;4.50;;;;;;;16.61;37.15;101340.09;4871236;28;123455;-75
2021/05/01 10:46:45;;;;;;;5.38;4.28;;;;;;;16.58;36.93;101339.44;4870189;28;123673;-75
2021/05/01 10:49:13;;;;;;;6.68;4.18;;;;;;;16.51;36.58;101339.81;4868605;28;118544;-76
2021/05/01 10:51:46;;;;;;;6.82;3.55;;;;;;;16.46;35.98;101333.91;4882849;28;118941;-76
2021/05/01 10:54:32;;;;;;;4.80;4.03;;;;;;;16.40;35.92;101336.94;4876966;28;124185;-76
2021/05/01 10:56:59;;;;;;;;;;;;;;;16.37;37.70;101342.50;4883941;28;123998;-73
2021/05/01 10:59:29;;;;;;;7.47;4.25;;;;;;;16.38;36.98;101338.84;4892680;28;119445;-75
2021/05/01 11:02:00;;;;;;;8.27;5.68;;;;;;;16.34;37.35;101334.66;4857087;28;119923;-75
2021/05/01 11:04:31;;;;;;;9.57;5.70;;;;;;;16.27;37.36;101334.16;4858728;28;123181;-75
2021/05/01 11:07:08;;;;;;;9.02;5.80;;;;;;;16.24;37.72;101336.19;4866227;28;126132;-74
2021/05/01 11:09:42;;;;;;;7.82;5.82;;;;;;;16.20;37.72;101330.16;4868226;28;118336;-75
2021/05/01 11:12:11;;;;;;;9.25;6.55;;;;;;;16.15;37.62;101333.09;4868482;28;118612;-74
2021/05/01 11:15:05;;;;;;;8.95;5.97;;;;;;;16.10;38.05;101329.81;4877031;28;122959;-74
2021/05/01 11:17:32;;;;;;;7.63;5.90;;;;;;;16.10;37.47;101328.97;4867206;28;123810;-74
2021/05/01 11:20:17;;;;;;;8.98;6.45;;;;;;;16.09;37.48;101322.78;4873989;28;118834;-74